createdAt,value
2023-05-08T00:00:29.228Z,25.03
2023-05-08T00:01:29.236Z,25.04
2023-05-08T00:02:29.433Z,25.03
2023-05-08T00:03:29.461Z,25.04
2023-05-08T00:04:29.471Z,25.04
2023-05-08T00:05:29.473Z,25.03
2023-05-08T00:06:29.557Z,25.03
2023-05-08T00:07:29.589Z,25.03
2023-05-08T00:08:29.661Z,25.02
2023-05-08T00:09:29.737Z,25.03
2023-05-08T00:10:29.744Z,25.03
2023-05-08T00:11:29.819Z,25.03
2023-05-08T00:12:29.868Z,25.02
2023-05-08T00:13:29.901Z,25.02
2023-05-08T00:14:29.993Z,25.03
2023-05-08T00:15:30.028Z,25.02
2023-05-08T00:16:30.155Z,25.03
2023-05-08T00:17:30.153Z,25.02
2023-05-08T00:18:30.181Z,25.02
2023-05-08T00:19:30.262Z,25.02
2023-05-08T00:20:30.327Z,25.02
2023-05-08T00:21:30.332Z,25.02
2023-05-08T00:22:30.422Z,25.02
2023-05-08T00:23:30.500Z,25.02
2023-05-08T00:24:31.081Z,25.01
2023-05-08T00:25:30.612Z,25.02
2023-05-08T00:26:30.655Z,25.02
2023-05-08T00:27:30.689Z,25.03
2023-05-08T00:28:30.750Z,25.03
2023-05-08T00:29:30.806Z,25.02
2023-05-08T00:30:30.852Z,25.02
2023-05-08T00:31:30.963Z,25.01
2023-05-08T00:32:30.967Z,25.02
2023-05-08T00:33:31.041Z,25.02
2023-05-08T00:34:31.091Z,25.01
2023-05-08T00:35:31.138Z,25.02
2023-05-08T00:36:31.188Z,25.01
2023-05-08T00:37:31.255Z,25.01
2023-05-08T00:38:31.299Z,25.02
2023-05-08T00:39:31.364Z,25.01
2023-05-08T00:40:31.381Z,25.01
2023-05-08T00:41:31.433Z,25.01
2023-05-08T00:42:31.468Z,25.02
2023-05-08T00:43:31.557Z,25.02
2023-05-08T00:44:31.591Z,25.01
2023-05-08T00:45:31.618Z,25.01
2023-05-08T00:46:31.688Z,25.01
2023-05-08T00:47:31.813Z,25.01
2023-05-08T00:48:31.767Z,25.01
2023-05-08T00:49:31.810Z,25.01
2023-05-08T00:50:31.856Z,25.02
2023-05-08T00:51:31.934Z,25.01
2023-05-08T00:52:32.002Z,25.00
2023-05-08T00:53:32.046Z,25.00
2023-05-08T00:54:32.107Z,25.01
2023-05-08T00:55:32.132Z,25.01
2023-05-08T00:56:32.166Z,25.01
2023-05-08T00:57:32.290Z,25.01
2023-05-08T00:58:32.291Z,25.00
2023-05-08T00:59:32.358Z,25.00
2023-05-08T01:00:32.393Z,25.01
2023-05-08T01:01:32.527Z,25.00
2023-05-08T01:02:32.585Z,25.00
2023-05-08T01:03:32.639Z,25.00
2023-05-08T01:04:32.692Z,24.99
2023-05-08T01:05:32.699Z,25.00
2023-05-08T01:06:32.775Z,24.99
2023-05-08T01:07:32.779Z,24.99
2023-05-08T01:08:32.867Z,25.00
2023-05-08T01:09:32.940Z,24.99
2023-05-08T01:10:32.983Z,24.99
2023-05-08T01:11:33.031Z,24.99
2023-05-08T01:12:33.093Z,24.99
2023-05-08T01:13:33.143Z,24.99
2023-05-08T01:14:33.203Z,24.99
2023-05-08T01:15:33.240Z,24.98
2023-05-08T01:16:33.446Z,24.99
2023-05-08T01:17:33.407Z,24.98
2023-05-08T01:18:33.453Z,24.99
2023-05-08T01:19:33.517Z,24.98
2023-05-08T01:20:33.560Z,24.99
2023-05-08T01:21:33.626Z,24.98
2023-05-08T01:22:33.684Z,24.98
2023-05-08T01:23:33.727Z,24.98
2023-05-08T01:24:33.793Z,24.99
2023-05-08T01:25:33.885Z,24.98
2023-05-08T01:26:33.915Z,24.98
2023-05-08T01:27:33.980Z,24.97
2023-05-08T01:28:34.052Z,24.97
2023-05-08T01:29:34.108Z,24.98
2023-05-08T01:30:34.162Z,24.98
2023-05-08T01:31:34.194Z,24.98
2023-05-08T01:32:34.355Z,24.98
2023-05-08T01:33:34.335Z,24.98
2023-05-08T01:34:34.407Z,24.97
2023-05-08T01:35:34.499Z,24.97
2023-05-08T01:36:34.490Z,24.98
2023-05-08T01:37:34.596Z,24.97
2023-05-08T01:38:34.632Z,24.97
2023-05-08T01:39:34.692Z,24.97
2023-05-08T01:40:34.770Z,24.97
2023-05-08T01:41:34.828Z,24.97
2023-05-08T01:42:34.874Z,24.97
2023-05-08T01:43:34.955Z,24.97
2023-05-08T01:44:35.001Z,24.96
2023-05-08T01:45:35.054Z,24.96
2023-05-08T01:46:35.164Z,24.97
2023-05-08T01:47:35.171Z,24.96
2023-05-08T01:48:35.293Z,24.96
2023-05-08T01:49:35.291Z,24.96
2023-05-08T01:50:35.378Z,24.97
2023-05-08T01:51:35.443Z,24.96
2023-05-08T01:52:35.475Z,24.96
2023-05-08T01:53:35.553Z,24.96
2023-05-08T01:54:35.628Z,24.96
2023-05-08T01:55:35.678Z,24.96
2023-05-08T01:56:35.738Z,24.96
2023-05-08T01:57:35.796Z,24.96
2023-05-08T01:58:35.852Z,24.96
2023-05-08T01:59:35.924Z,24.96
2023-05-08T02:00:36.080Z,24.96
2023-05-08T02:01:36.028Z,24.96
2023-05-08T02:02:36.146Z,24.96
2023-05-08T02:03:36.205Z,24.96
2023-05-08T02:04:36.225Z,24.96
2023-05-08T02:05:36.276Z,24.95
2023-05-08T02:06:36.361Z,24.95
2023-05-08T02:07:36.413Z,24.95
2023-05-08T02:08:36.467Z,24.95
2023-05-08T02:09:36.542Z,24.95
2023-05-08T02:10:36.589Z,24.95
2023-05-08T02:11:36.612Z,24.94
2023-05-08T02:12:36.749Z,24.95
2023-05-08T02:13:36.731Z,24.95
2023-05-08T02:14:36.809Z,24.95
2023-05-08T02:15:36.859Z,24.95
2023-05-08T02:16:36.996Z,24.94
2023-05-08T02:17:37.003Z,24.94
2023-05-08T02:18:37.039Z,24.93
2023-05-08T02:19:37.147Z,24.94
2023-05-08T02:20:37.161Z,24.93
2023-05-08T02:21:37.237Z,24.94
2023-05-08T02:22:37.314Z,24.93
2023-05-08T02:23:37.354Z,24.94
2023-05-08T02:24:37.456Z,24.94
2023-05-08T02:25:37.452Z,24.94
2023-05-08T02:26:37.664Z,24.93
2023-05-08T02:27:37.628Z,24.93
2023-05-08T02:28:37.670Z,24.93
2023-05-08T02:29:37.756Z,24.93
2023-05-08T02:30:39.693Z,24.94
2023-05-08T02:31:37.913Z,24.92
2023-05-08T02:32:37.945Z,24.92
2023-05-08T02:33:37.985Z,24.92
2023-05-08T02:34:39.473Z,24.93
2023-05-08T02:35:38.022Z,24.92
2023-05-08T02:36:38.030Z,24.92
2023-05-08T02:37:38.010Z,24.92
2023-05-08T02:38:38.013Z,24.92
2023-05-08T02:39:38.039Z,24.92
2023-05-08T02:40:38.019Z,24.92
2023-05-08T02:41:38.001Z,24.92
2023-05-08T02:42:38.003Z,24.92
2023-05-08T02:43:37.992Z,24.92
2023-05-08T02:44:37.974Z,24.92
2023-05-08T02:45:37.950Z,24.92
2023-05-08T02:46:38.059Z,24.92
2023-05-08T02:47:38.142Z,24.92
2023-05-08T02:48:38.189Z,24.92
2023-05-08T02:49:38.199Z,24.91
2023-05-08T02:50:38.298Z,24.91
2023-05-08T02:51:38.357Z,24.92
2023-05-08T02:52:38.411Z,24.92
2023-05-08T02:53:38.457Z,24.91
2023-05-08T02:54:38.574Z,24.91
2023-05-08T02:55:38.598Z,24.91
2023-05-08T02:56:38.682Z,24.92
2023-05-08T02:57:38.703Z,24.92
2023-05-08T02:58:38.767Z,24.91
2023-05-08T02:59:38.822Z,24.91
2023-05-08T03:00:38.868Z,24.91
2023-05-08T03:01:38.977Z,24.91
2023-05-08T03:02:39.085Z,24.91
2023-05-08T03:03:39.260Z,24.90
2023-05-08T03:04:39.130Z,24.90
2023-05-08T03:05:39.171Z,24.91
2023-05-08T03:06:39.243Z,24.91
2023-05-08T03:07:39.322Z,24.91
2023-05-08T03:08:39.352Z,24.90
2023-05-08T03:09:39.436Z,24.90
2023-05-08T03:10:39.492Z,24.90
2023-05-08T03:11:39.556Z,24.89
2023-05-08T03:12:41.439Z,24.90
2023-05-08T03:13:39.580Z,24.90
2023-05-08T03:14:39.591Z,24.90
2023-05-08T03:15:39.580Z,24.90
2023-05-08T03:16:39.583Z,24.89
2023-05-08T03:17:39.578Z,24.90
2023-05-08T03:18:39.589Z,24.90
2023-05-08T03:19:39.572Z,24.90
2023-05-08T03:20:39.555Z,24.90
2023-05-08T03:21:39.523Z,24.90
2023-05-08T03:22:39.520Z,24.90
2023-05-08T03:23:39.531Z,24.90
2023-05-08T03:24:39.544Z,24.90
2023-05-08T03:25:39.532Z,24.89
2023-05-08T03:26:39.516Z,24.90
2023-05-08T03:27:39.495Z,24.89
2023-05-08T03:28:39.489Z,24.88
2023-05-08T03:29:39.517Z,24.89
2023-05-08T03:30:39.486Z,24.89
2023-05-08T03:31:39.518Z,24.89
2023-05-08T03:32:39.488Z,24.88
2023-05-08T03:33:39.451Z,24.88
2023-05-08T03:34:39.464Z,24.88
2023-05-08T03:35:39.470Z,24.88
2023-05-08T03:36:39.450Z,24.88
2023-05-08T03:37:39.406Z,24.88
2023-05-08T03:38:39.419Z,24.88
2023-05-08T03:39:39.464Z,24.89
2023-05-08T03:40:39.425Z,24.88
2023-05-08T03:41:39.439Z,24.87
2023-05-08T03:42:39.394Z,24.87
2023-05-08T03:43:39.414Z,24.88
2023-05-08T03:44:39.439Z,24.88
2023-05-08T03:45:39.394Z,24.88
2023-05-08T03:46:39.420Z,24.88
2023-05-08T03:47:39.421Z,24.87
2023-05-08T03:48:39.470Z,24.88
2023-05-08T03:49:39.511Z,24.87
2023-05-08T03:50:39.575Z,24.87
2023-05-08T03:51:39.628Z,24.87
2023-05-08T03:52:39.721Z,24.87
2023-05-08T03:53:39.771Z,24.87
2023-05-08T03:54:39.828Z,24.87
2023-05-08T03:55:39.881Z,24.87
2023-05-08T03:56:39.922Z,24.87
2023-05-08T03:57:39.977Z,24.87
2023-05-08T03:58:40.059Z,24.87
2023-05-08T03:59:40.127Z,24.87
2023-05-08T04:00:40.199Z,24.87
2023-05-08T04:01:40.267Z,24.87
2023-05-08T04:02:42.135Z,24.87
2023-05-08T04:03:40.489Z,24.87
2023-05-08T04:04:40.339Z,24.86
2023-05-08T04:05:40.366Z,24.86
2023-05-08T04:06:49.182Z,24.86
2023-05-08T04:07:41.414Z,24.86
2023-05-08T04:08:40.395Z,24.86
2023-05-08T04:09:40.372Z,24.86
2023-05-08T04:10:40.356Z,24.86
2023-05-08T04:11:40.345Z,24.86
2023-05-08T04:12:40.399Z,24.86
2023-05-08T04:13:40.330Z,24.86
2023-05-08T04:14:40.349Z,24.86
2023-05-08T04:15:40.315Z,24.86
2023-05-08T04:16:40.371Z,24.86
2023-05-08T04:17:40.432Z,24.86
2023-05-08T04:18:40.462Z,24.86
2023-05-08T04:19:40.491Z,24.86
2023-05-08T04:20:40.523Z,24.86
2023-05-08T04:21:40.538Z,24.86
2023-05-08T04:22:40.607Z,24.86
2023-05-08T04:23:40.669Z,24.86
2023-05-08T04:24:40.665Z,24.85
2023-05-08T04:25:40.723Z,24.86
2023-05-08T04:26:40.761Z,24.85
2023-05-08T04:27:40.786Z,24.85
2023-05-08T04:28:40.849Z,24.85
2023-05-08T04:29:40.903Z,24.85
2023-05-08T04:30:40.940Z,24.85
2023-05-08T04:31:41.028Z,24.85
2023-05-08T04:32:42.780Z,24.84
2023-05-08T04:33:41.040Z,24.85
2023-05-08T04:34:41.006Z,24.85
2023-05-08T04:35:40.991Z,24.85
2023-05-08T04:36:41.009Z,24.85
2023-05-08T04:37:40.995Z,24.85
2023-05-08T04:38:41.017Z,24.85
2023-05-08T04:39:42.527Z,24.85
2023-05-08T04:40:41.350Z,24.84
2023-05-08T04:41:41.314Z,24.84
2023-05-08T04:42:41.299Z,24.84
2023-05-08T04:43:41.387Z,24.84
2023-05-08T04:44:41.454Z,24.85
2023-05-08T04:45:41.456Z,24.84
2023-05-08T04:46:41.570Z,24.84
2023-05-08T04:47:41.574Z,24.85
2023-05-08T04:48:41.671Z,24.84
2023-05-08T04:49:41.609Z,24.83
2023-05-08T04:50:41.633Z,24.85
2023-05-08T04:51:41.650Z,24.83
2023-05-08T04:52:41.643Z,24.81
2023-05-08T04:53:41.665Z,24.81
2023-05-08T04:54:41.653Z,24.83
2023-05-08T04:55:41.629Z,24.84
2023-05-08T04:56:41.643Z,24.83
2023-05-08T04:57:41.664Z,24.84
2023-05-08T04:58:41.658Z,24.83
2023-05-08T04:59:41.673Z,24.84
2023-05-08T05:00:41.632Z,24.84
2023-05-08T05:01:41.810Z,24.84
2023-05-08T05:02:41.802Z,24.83
2023-05-08T05:03:41.809Z,24.84
2023-05-08T05:04:41.724Z,24.82
2023-05-08T05:05:41.727Z,24.82
2023-05-08T05:06:41.803Z,24.81
2023-05-08T05:07:41.891Z,24.80
2023-05-08T05:08:42.010Z,24.78
2023-05-08T05:09:42.002Z,24.77
2023-05-08T05:10:42.022Z,24.78
2023-05-08T05:11:41.987Z,24.75
2023-05-08T05:12:42.126Z,24.76
2023-05-08T05:13:42.007Z,24.77
2023-05-08T05:14:42.110Z,24.77
2023-05-08T05:15:42.090Z,24.78
2023-05-08T05:16:42.189Z,24.78
2023-05-08T05:17:42.155Z,24.79
2023-05-08T05:18:42.142Z,24.80
2023-05-08T05:19:42.148Z,24.80
2023-05-08T05:20:42.122Z,24.79
2023-05-08T05:21:42.140Z,24.78
2023-05-08T05:22:42.145Z,24.78
2023-05-08T05:23:42.167Z,24.77
2023-05-08T05:24:42.185Z,24.74
2023-05-08T05:25:42.270Z,24.73
2023-05-08T05:26:42.280Z,24.74
2023-05-08T05:27:42.283Z,24.74
2023-05-08T05:28:42.297Z,24.74
2023-05-08T05:29:42.310Z,24.73
2023-05-08T05:30:42.322Z,24.73
2023-05-08T05:31:42.384Z,24.73
2023-05-08T05:32:42.402Z,24.73
2023-05-08T05:33:42.325Z,24.73
2023-05-08T05:34:42.332Z,24.73
2023-05-08T05:35:42.357Z,24.71
2023-05-08T05:36:42.370Z,24.70
2023-05-08T05:37:42.367Z,24.69
2023-05-08T05:38:42.375Z,24.69
2023-05-08T05:39:43.216Z,24.67
2023-05-08T05:40:42.444Z,24.65
2023-05-08T05:41:42.394Z,24.64
2023-05-08T05:42:42.405Z,24.63
2023-05-08T05:43:42.412Z,24.63
2023-05-08T05:44:42.725Z,24.61
2023-05-08T05:45:42.456Z,24.60
2023-05-08T05:46:44.215Z,24.62
2023-05-08T05:47:42.497Z,24.60
2023-05-08T05:48:42.466Z,24.58
2023-05-08T05:49:42.538Z,24.58
2023-05-08T05:50:42.544Z,24.61
2023-05-08T05:51:42.589Z,24.64
2023-05-08T05:52:42.610Z,24.68
2023-05-08T05:53:42.551Z,24.71
2023-05-08T05:54:42.727Z,24.72
2023-05-08T05:55:42.610Z,24.74
2023-05-08T05:56:42.592Z,24.77
2023-05-08T05:57:42.599Z,24.78
2023-05-08T05:58:42.616Z,24.80
2023-05-08T05:59:42.633Z,24.81
2023-05-08T06:00:42.684Z,24.84
2023-05-08T06:01:42.772Z,24.87
2023-05-08T06:02:42.882Z,24.91
2023-05-08T06:03:42.990Z,24.93
2023-05-08T06:04:42.942Z,24.96
2023-05-08T06:05:42.963Z,24.99
2023-05-08T06:06:43.021Z,25.01
2023-05-08T06:07:43.084Z,25.03
2023-05-08T06:08:43.145Z,25.06
2023-05-08T06:09:43.214Z,25.09
2023-05-08T06:10:43.723Z,25.11
2023-05-08T06:11:43.259Z,25.13
2023-05-08T06:12:43.349Z,25.16
2023-05-08T06:13:43.375Z,25.18
2023-05-08T06:14:43.417Z,25.20
2023-05-08T06:15:43.458Z,25.22
2023-05-08T06:16:43.460Z,25.24
2023-05-08T06:17:43.499Z,25.27
2023-05-08T06:18:43.533Z,25.29
2023-05-08T06:19:43.567Z,25.32
2023-05-08T06:20:43.571Z,25.34
2023-05-08T06:21:43.590Z,25.35
2023-05-08T06:22:43.631Z,25.38
2023-05-08T06:23:43.660Z,25.40
2023-05-08T06:24:43.720Z,25.43
2023-05-08T06:25:43.668Z,25.44
2023-05-08T06:26:43.685Z,25.47
2023-05-08T06:27:43.693Z,25.48
2023-05-08T06:28:43.724Z,25.48
2023-05-08T06:29:43.750Z,25.49
2023-05-08T06:30:43.772Z,25.51
2023-05-08T06:31:43.739Z,25.51
2023-05-08T06:32:43.780Z,25.54
2023-05-08T06:33:43.751Z,25.56
2023-05-08T06:34:43.776Z,25.57
2023-05-08T06:35:43.773Z,25.58
2023-05-08T06:36:43.790Z,25.60
2023-05-08T06:37:43.807Z,25.61
2023-05-08T06:38:43.805Z,25.62
2023-05-08T06:39:43.801Z,25.63
2023-05-08T06:40:43.776Z,25.63
2023-05-08T06:41:43.802Z,25.64
2023-05-08T06:42:43.779Z,25.64
2023-05-08T06:43:43.785Z,25.62
2023-05-08T06:44:43.822Z,25.62
2023-05-08T06:45:43.782Z,25.62
2023-05-08T06:46:43.956Z,25.63
2023-05-08T06:47:43.786Z,25.62
2023-05-08T06:48:43.791Z,25.60
2023-05-08T06:49:43.806Z,25.61
2023-05-08T06:50:43.812Z,25.62
2023-05-08T06:51:43.813Z,25.54
2023-05-08T06:52:43.817Z,25.53
2023-05-08T06:53:43.823Z,25.55
2023-05-08T06:54:43.830Z,25.57
2023-05-08T06:55:43.816Z,25.57
2023-05-08T06:56:43.879Z,25.58
2023-05-08T06:57:43.822Z,25.58
2023-05-08T06:58:48.393Z,25.59
2023-05-08T06:59:44.838Z,25.59
2023-05-08T07:00:43.809Z,25.60
2023-05-08T07:01:43.871Z,25.59
2023-05-08T07:02:43.874Z,25.60
2023-05-08T07:03:43.787Z,25.60
2023-05-08T07:04:43.805Z,25.60
2023-05-08T07:05:43.775Z,25.59
2023-05-08T07:06:43.788Z,25.58
2023-05-08T07:07:43.760Z,25.59
2023-05-08T07:08:43.753Z,25.59
2023-05-08T07:09:43.768Z,25.59
2023-05-08T07:10:43.746Z,25.61
2023-05-08T07:11:43.749Z,25.61
2023-05-08T07:12:43.821Z,25.61
2023-05-08T07:13:43.724Z,25.61
2023-05-08T07:14:43.715Z,25.62
2023-05-08T07:15:43.818Z,25.62
2023-05-08T07:16:43.718Z,25.62
2023-05-08T07:17:43.774Z,25.63
2023-05-08T07:18:43.683Z,25.65
2023-05-08T07:19:43.683Z,25.64
2023-05-08T07:20:43.690Z,25.65
2023-05-08T07:21:43.719Z,25.65
2023-05-08T07:22:43.770Z,25.65
2023-05-08T07:23:43.664Z,25.65
2023-05-08T07:24:43.678Z,25.65
2023-05-08T07:25:43.676Z,25.65
2023-05-08T07:26:43.625Z,25.65
2023-05-08T07:27:43.658Z,25.65
2023-05-08T07:28:43.682Z,25.66
2023-05-08T07:29:43.649Z,25.66
2023-05-08T07:30:43.638Z,25.66
2023-05-08T07:31:43.653Z,25.66
2023-05-08T07:32:43.631Z,25.65
2023-05-08T07:33:43.626Z,25.66
2023-05-08T07:34:43.637Z,25.64
2023-05-08T07:35:43.610Z,25.65
2023-05-08T07:36:43.588Z,25.66
2023-05-08T07:37:43.605Z,25.67
2023-05-08T07:38:43.552Z,25.68
2023-05-08T07:39:43.593Z,25.68
2023-05-08T07:40:43.759Z,25.68
2023-05-08T07:41:43.648Z,25.68
2023-05-08T07:42:43.591Z,25.65
2023-05-08T07:43:43.589Z,25.62
2023-05-08T07:44:53.681Z,25.61
2023-05-08T07:45:44.748Z,25.60
2023-05-08T07:46:43.653Z,25.60
2023-05-08T07:47:43.620Z,25.59
2023-05-08T07:48:43.577Z,25.58
2023-05-08T07:49:43.581Z,25.56
2023-05-08T07:50:43.761Z,25.55
2023-05-08T07:51:43.534Z,25.54
2023-05-08T07:52:43.532Z,25.53
2023-05-08T07:53:43.526Z,25.51
2023-05-08T07:54:43.521Z,25.50
2023-05-08T07:55:43.518Z,25.49
2023-05-08T07:56:43.527Z,25.47
2023-05-08T07:57:43.519Z,25.47
2023-05-08T07:58:43.530Z,25.44
2023-05-08T07:59:43.475Z,25.43
2023-05-08T08:00:43.667Z,25.43
2023-05-08T08:01:43.558Z,25.41
2023-05-08T08:02:43.634Z,25.40
2023-05-08T08:03:43.745Z,25.38
2023-05-08T08:04:43.636Z,25.37
2023-05-08T08:05:43.779Z,25.37
2023-05-08T08:06:43.729Z,25.35
2023-05-08T08:07:43.763Z,25.35
2023-05-08T08:08:43.794Z,25.33
2023-05-08T08:09:43.836Z,25.33
2023-05-08T08:10:43.884Z,25.32
2023-05-08T08:11:43.925Z,25.32
2023-05-08T08:12:43.968Z,25.32
2023-05-08T08:13:43.988Z,25.30
2023-05-08T08:14:44.017Z,25.29
2023-05-08T08:15:44.116Z,25.29
2023-05-08T08:16:44.272Z,25.28
2023-05-08T08:17:44.262Z,25.28
2023-05-08T08:18:44.230Z,25.27
2023-05-08T08:19:44.291Z,25.27
2023-05-08T08:20:44.321Z,25.26
2023-05-08T08:21:44.370Z,25.25
2023-05-08T08:22:44.399Z,25.25
2023-05-08T08:23:44.480Z,25.24
2023-05-08T08:24:44.517Z,25.23
2023-05-08T08:25:44.572Z,25.23
2023-05-08T08:26:44.635Z,25.22
2023-05-08T08:27:44.682Z,25.22
2023-05-08T08:28:44.776Z,25.21
2023-05-08T08:29:44.769Z,25.21
2023-05-08T08:30:44.882Z,25.21
2023-05-08T08:31:44.909Z,25.21
2023-05-08T08:32:45.065Z,25.21
2023-05-08T08:33:44.983Z,25.20
2023-05-08T08:34:45.059Z,25.20
2023-05-08T08:35:45.272Z,25.17
2023-05-08T08:36:45.147Z,25.18
2023-05-08T08:37:45.241Z,25.19
2023-05-08T08:38:45.270Z,25.18
2023-05-08T08:39:45.295Z,25.19
2023-05-08T08:40:45.743Z,25.20
2023-05-08T08:41:45.364Z,25.19
2023-05-08T08:42:45.431Z,25.19
2023-05-08T08:43:45.463Z,25.21
2023-05-08T08:44:45.471Z,25.24
2023-05-08T08:45:45.533Z,25.26
2023-05-08T08:46:45.617Z,25.29
2023-05-08T08:47:45.612Z,25.30
2023-05-08T08:48:45.736Z,25.32
2023-05-08T08:49:45.642Z,25.34
2023-05-08T08:50:45.761Z,25.32
2023-05-08T08:51:45.698Z,25.28
2023-05-08T08:52:45.694Z,25.29
2023-05-08T08:53:45.729Z,25.29
2023-05-08T08:54:45.707Z,25.33
2023-05-08T08:55:45.779Z,25.36
2023-05-08T08:56:45.764Z,25.40
2023-05-08T08:57:45.738Z,25.44
2023-05-08T08:58:45.782Z,25.46
2023-05-08T08:59:45.818Z,25.48
2023-05-08T09:00:45.772Z,25.51
2023-05-08T09:01:45.786Z,25.53
2023-05-08T09:02:45.876Z,25.53
2023-05-08T09:03:48.331Z,25.56
2023-05-08T09:04:45.836Z,25.58
2023-05-08T09:05:45.837Z,25.60
2023-05-08T09:06:45.729Z,25.61
2023-05-08T09:07:45.737Z,25.63
2023-05-08T09:08:45.751Z,25.65
2023-05-08T09:09:45.735Z,25.67
2023-05-08T09:10:45.773Z,25.67
2023-05-08T09:11:45.698Z,25.68
2023-05-08T09:12:45.756Z,25.70
2023-05-08T09:13:45.717Z,25.71
2023-05-08T09:14:45.697Z,25.73
2023-05-08T09:15:45.687Z,25.75
2023-05-08T09:16:45.716Z,25.77
2023-05-08T09:17:45.714Z,25.78
2023-05-08T09:18:45.690Z,25.78
2023-05-08T09:19:45.657Z,25.79
2023-05-08T09:20:45.870Z,25.80
2023-05-08T09:21:45.692Z,25.81
2023-05-08T09:22:45.646Z,25.81
2023-05-08T09:23:45.635Z,25.82
2023-05-08T09:24:45.669Z,25.82
2023-05-08T09:25:45.779Z,25.82
2023-05-08T09:26:45.640Z,25.84
2023-05-08T09:27:46.598Z,25.83
2023-05-08T09:28:45.617Z,25.84
2023-05-08T09:29:45.653Z,25.85
2023-05-08T09:30:45.788Z,25.84
2023-05-08T09:31:45.634Z,25.84
2023-05-08T09:32:45.712Z,25.84
2023-05-08T09:33:45.586Z,25.85
2023-05-08T09:34:45.592Z,25.84
2023-05-08T09:35:45.780Z,25.85
2023-05-08T09:36:45.794Z,25.86
2023-05-08T09:37:45.733Z,25.86
2023-05-08T09:38:45.819Z,25.86
2023-05-08T09:39:45.881Z,25.87
2023-05-08T09:40:46.292Z,25.86
2023-05-08T09:41:46.016Z,25.85
2023-05-08T09:42:46.157Z,25.86
2023-05-08T09:43:46.145Z,25.84
2023-05-08T09:44:46.155Z,25.84
2023-05-08T09:45:46.363Z,25.83
2023-05-08T09:46:46.328Z,25.82
2023-05-08T09:47:46.350Z,25.82
2023-05-08T09:48:46.383Z,25.81
2023-05-08T09:49:46.447Z,25.82
2023-05-08T09:50:46.538Z,25.84
2023-05-08T09:51:46.578Z,25.84
2023-05-08T09:52:46.716Z,25.83
2023-05-08T09:53:46.676Z,25.82
2023-05-08T09:54:46.719Z,25.83
2023-05-08T09:55:46.835Z,25.84
2023-05-08T09:56:46.843Z,25.84
2023-05-08T09:57:46.909Z,25.85
2023-05-08T09:58:46.982Z,25.88
2023-05-08T09:59:47.008Z,25.88
2023-05-08T10:00:47.150Z,25.90
2023-05-08T10:01:47.147Z,25.91
2023-05-08T10:02:47.231Z,25.93
2023-05-08T10:03:47.292Z,25.95
2023-05-08T10:04:47.345Z,25.95
2023-05-08T10:05:47.380Z,25.96
2023-05-08T10:06:47.382Z,25.97
2023-05-08T10:07:47.443Z,25.98
2023-05-08T10:08:47.509Z,25.98
2023-05-08T10:09:50.894Z,26.00
2023-05-08T10:10:47.568Z,25.99
2023-05-08T10:11:47.548Z,25.99
2023-05-08T10:12:47.679Z,25.99
2023-05-08T10:13:47.552Z,25.99
2023-05-08T10:14:47.548Z,25.98
2023-05-08T10:15:47.541Z,25.98
2023-05-08T10:16:47.911Z,25.98
2023-05-08T10:17:47.530Z,25.97
2023-05-08T10:18:47.521Z,25.95
2023-05-08T10:19:47.491Z,25.92
2023-05-08T10:20:47.483Z,25.93
2023-05-08T10:21:47.506Z,25.90
2023-05-08T10:22:47.497Z,25.90
2023-05-08T10:23:47.478Z,25.90
2023-05-08T10:24:54.584Z,25.91
2023-05-08T10:25:47.477Z,25.87
2023-05-08T10:26:57.365Z,25.87
2023-05-08T10:27:48.475Z,25.87
2023-05-08T10:28:47.442Z,25.87
2023-05-08T10:29:47.455Z,25.86
2023-05-08T10:30:47.452Z,25.85
2023-05-08T10:31:47.441Z,25.84
2023-05-08T10:32:47.525Z,25.85
2023-05-08T10:33:47.493Z,25.86
2023-05-08T10:34:47.537Z,25.80
2023-05-08T10:35:47.613Z,25.76
2023-05-08T10:36:47.864Z,25.76
2023-05-08T10:37:47.671Z,25.80
2023-05-08T10:38:47.709Z,25.81
2023-05-08T10:39:47.742Z,25.82
2023-05-08T10:40:47.870Z,25.82
2023-05-08T10:41:47.853Z,25.83
2023-05-08T10:42:47.927Z,25.82
2023-05-08T10:43:48.016Z,25.83
2023-05-08T10:44:48.052Z,25.84
2023-05-08T10:45:48.129Z,25.84
2023-05-08T10:46:48.913Z,25.85
2023-05-08T10:47:48.254Z,25.86
2023-05-08T10:48:48.288Z,25.86
2023-05-08T10:49:48.344Z,25.88
2023-05-08T10:50:48.385Z,25.87
2023-05-08T10:51:48.470Z,25.87
2023-05-08T10:52:48.547Z,25.87
2023-05-08T10:53:48.579Z,25.88
2023-05-08T10:54:48.631Z,25.87
2023-05-08T10:55:48.693Z,25.87
2023-05-08T10:56:48.748Z,25.85
2023-05-08T10:57:48.804Z,25.87
2023-05-08T10:58:48.874Z,25.88
2023-05-08T10:59:48.934Z,25.89
2023-05-08T11:00:48.970Z,25.90
2023-05-08T11:01:49.134Z,25.90
2023-05-08T11:02:49.172Z,25.90
2023-05-08T11:03:49.233Z,25.88
2023-05-08T11:04:49.252Z,25.85
2023-05-08T11:05:49.296Z,25.81
2023-05-08T11:06:49.491Z,25.81
2023-05-08T11:07:49.433Z,25.82
2023-05-08T11:08:49.440Z,25.81
2023-05-08T11:09:49.441Z,25.82
2023-05-08T11:10:49.461Z,25.83
2023-05-08T11:11:49.487Z,25.83
2023-05-08T11:12:49.557Z,25.83
2023-05-08T11:13:49.492Z,25.80
2023-05-08T11:14:49.464Z,25.80
2023-05-08T11:15:49.556Z,25.81
2023-05-08T11:16:49.553Z,25.82
2023-05-08T11:17:49.611Z,25.82
2023-05-08T11:18:49.908Z,25.81
2023-05-08T11:19:49.588Z,25.82
2023-05-08T11:20:49.568Z,25.82
2023-05-08T11:21:49.584Z,25.79
2023-05-08T11:22:49.603Z,25.76
2023-05-08T11:23:49.586Z,25.74
2023-05-08T11:24:49.585Z,25.70
2023-05-08T11:25:49.642Z,25.67
2023-05-08T11:26:49.657Z,25.66
2023-05-08T11:27:49.662Z,25.68
2023-05-08T11:28:49.587Z,25.67
2023-05-08T11:29:49.622Z,25.68
2023-05-08T11:30:49.617Z,25.69
2023-05-08T11:31:49.908Z,25.69
2023-05-08T11:32:49.729Z,25.68
2023-05-08T11:33:49.639Z,25.67
2023-05-08T11:34:49.656Z,25.66
2023-05-08T11:35:49.623Z,25.65
2023-05-08T11:36:49.690Z,25.64
2023-05-08T11:37:49.667Z,25.64
2023-05-08T11:38:49.685Z,25.64
2023-05-08T11:39:49.675Z,25.64
2023-05-08T11:40:49.716Z,25.64
2023-05-08T11:41:49.755Z,25.62
2023-05-08T11:42:49.761Z,25.61
2023-05-08T11:43:49.767Z,25.61
2023-05-08T11:44:49.786Z,25.61
2023-05-08T11:45:49.820Z,25.61
2023-05-08T11:46:49.901Z,25.61
2023-05-08T11:47:49.905Z,25.58
2023-05-08T11:48:49.928Z,25.58
2023-05-08T11:49:49.950Z,25.57
2023-05-08T11:50:49.956Z,25.58
2023-05-08T11:51:50.007Z,25.59
2023-05-08T11:52:50.017Z,25.60
2023-05-08T11:53:50.064Z,25.59
2023-05-08T11:54:50.056Z,25.57
2023-05-08T11:55:50.073Z,25.57
2023-05-08T11:56:50.633Z,25.58
2023-05-08T11:57:50.094Z,25.57
2023-05-08T11:58:50.092Z,25.59
2023-05-08T11:59:50.117Z,25.60
2023-05-08T12:00:50.159Z,25.60
2023-05-08T12:02:06.811Z,25.62
2023-05-08T12:02:51.163Z,25.62
2023-05-08T12:03:50.487Z,25.63
2023-05-08T12:04:50.125Z,25.60
2023-05-08T12:05:50.102Z,25.62
2023-05-08T12:06:50.078Z,25.64
2023-05-08T12:07:50.085Z,25.63
2023-05-08T12:08:50.098Z,25.62
2023-05-08T12:09:50.082Z,25.62
2023-05-08T12:10:50.052Z,25.64
2023-05-08T12:11:50.059Z,25.64
2023-05-08T12:12:50.057Z,25.61
2023-05-08T12:13:50.027Z,25.63
2023-05-08T12:14:50.020Z,25.65
2023-05-08T12:15:50.029Z,25.66
2023-05-08T12:16:50.059Z,25.66
2023-05-08T12:17:50.057Z,25.67
2023-05-08T12:18:50.031Z,25.66
2023-05-08T12:19:49.999Z,25.64
2023-05-08T12:20:49.984Z,25.64
2023-05-08T12:21:50.016Z,25.66
2023-05-08T12:22:50.018Z,25.67
2023-05-08T12:23:49.997Z,25.67
2023-05-08T12:24:49.948Z,25.67
2023-05-08T12:25:49.950Z,25.68
2023-05-08T12:26:49.956Z,25.67
2023-05-08T12:27:49.998Z,25.64
2023-05-08T12:28:49.938Z,25.66
2023-05-08T12:29:49.956Z,25.65
2023-05-08T12:30:50.039Z,25.62
2023-05-08T12:31:49.945Z,25.64
2023-05-08T12:32:49.967Z,25.66
2023-05-08T12:33:49.929Z,25.65
2023-05-08T12:34:49.938Z,25.63
2023-05-08T12:35:49.889Z,25.62
2023-05-08T12:36:49.920Z,25.61
2023-05-08T12:37:50.373Z,25.61
2023-05-08T12:38:49.881Z,25.59
2023-05-08T12:39:49.867Z,25.59
2023-05-08T12:40:49.922Z,25.58
2023-05-08T12:41:50.000Z,25.57
2023-05-08T12:42:50.008Z,25.56
2023-05-08T12:43:50.002Z,25.56
2023-05-08T12:44:50.054Z,25.55
2023-05-08T12:45:50.075Z,25.54
2023-05-08T12:46:50.216Z,25.53
2023-05-08T12:47:50.154Z,25.53
2023-05-08T12:48:50.262Z,25.52
2023-05-08T12:49:50.211Z,25.51
2023-05-08T12:50:50.236Z,25.52
2023-05-08T12:51:50.285Z,25.50
2023-05-08T12:52:51.778Z,25.48